sensor_id;sensor_type;location;lat;lon;timestamp;pressure;altitude;pressure_sealevel;temperature;humidity
80308;BME280;69616;43.522;1.348;2024-03-08T00:00:16;98703.50;;;11.08;68.27
80308;BME280;69616;43.522;1.348;2024-03-08T00:02:44;98733.16;;;11.15;68.15
80308;BME280;69616;43.522;1.348;2024-03-08T00:05:11;98742.00;;;11.12;68.37
80308;BME280;69616;43.522;1.348;2024-03-08T00:07:37;98723.47;;;11.15;67.98
80308;BME280;69616;43.522;1.348;2024-03-08T00:10:04;98713.34;;;11.01;68.14
80308;BME280;69616;43.522;1.348;2024-03-08T00:12:29;98700.91;;;11.06;68.09
80308;BME280;69616;43.522;1.348;2024-03-08T00:14:55;98702.59;;;11.09;68.43
80308;BME280;69616;43.522;1.348;2024-03-08T00:17:21;98701.69;;;11.10;68.31
80308;BME280;69616;43.522;1.348;2024-03-08T00:19:50;98706.22;;;11.05;68.53
80308;BME280;69616;43.522;1.348;2024-03-08T00:22:18;98703.38;;;11.13;67.97
80308;BME280;69616;43.522;1.348;2024-03-08T00:24:44;98699.84;;;11.12;68.08
80308;BME280;69616;43.522;1.348;2024-03-08T00:27:10;98702.38;;;11.15;68.04
80308;BME280;69616;43.522;1.348;2024-03-08T00:29:38;98693.66;;;11.13;67.88
80308;BME280;69616;43.522;1.348;2024-03-08T00:32:06;98681.41;;;11.12;67.89
80308;BME280;69616;43.522;1.348;2024-03-08T00:34:35;98684.13;;;11.11;68.39
80308;BME280;69616;43.522;1.348;2024-03-08T00:37:02;98682.31;;;11.11;68.36
80308;BME280;69616;43.522;1.348;2024-03-08T00:39:27;98678.78;;;11.12;67.89
80308;BME280;69616;43.522;1.348;2024-03-08T00:41:52;98671.84;;;11.10;68.27
80308;BME280;69616;43.522;1.348;2024-03-08T00:44:18;98653.34;;;11.11;68.12
80308;BME280;69616;43.522;1.348;2024-03-08T00:46:43;98664.00;;;11.08;68.11
80308;BME280;69616;43.522;1.348;2024-03-08T00:49:09;98660.81;;;10.97;68.13
80308;BME280;69616;43.522;1.348;2024-03-08T00:51:34;98664.00;;;11.08;68.03
80308;BME280;69616;43.522;1.348;2024-03-08T00:54:00;98674.50;;;11.10;67.89
80308;BME280;69616;43.522;1.348;2024-03-08T00:56:25;98671.88;;;11.08;67.70
80308;BME280;69616;43.522;1.348;2024-03-08T00:58:50;98667.44;;;11.10;67.65
80308;BME280;69616;43.522;1.348;2024-03-08T01:01:18;98661.25;;;11.11;67.38
80308;BME280;69616;43.522;1.348;2024-03-08T01:03:43;98655.06;;;11.12;67.11
80308;BME280;69616;43.522;1.348;2024-03-08T01:06:09;98658.72;;;11.08;67.18
80308;BME280;69616;43.522;1.348;2024-03-08T01:08:34;98655.13;;;11.11;67.11
80308;BME280;69616;43.522;1.348;2024-03-08T01:11:04;98646.34;;;11.10;66.96
80308;BME280;69616;43.522;1.348;2024-03-08T01:13:30;98656.91;;;11.10;67.17
80308;BME280;69616;43.522;1.348;2024-03-08T01:15:55;98648.16;;;11.10;67.08
80308;BME280;69616;43.522;1.348;2024-03-08T01:18:21;98650.59;;;11.14;67.14
80308;BME280;69616;43.522;1.348;2024-03-08T01:20:46;98649.81;;;11.12;66.95
80308;BME280;69616;43.522;1.348;2024-03-08T01:23:12;98645.41;;;11.13;66.74
80308;BME280;69616;43.522;1.348;2024-03-08T01:25:37;98650.56;;;11.16;67.08
80308;BME280;69616;43.522;1.348;2024-03-08T01:28:03;98649.91;;;11.09;67.23
80308;BME280;69616;43.522;1.348;2024-03-08T01:30:29;98626.16;;;11.11;67.35
80308;BME280;69616;43.522;1.348;2024-03-08T01:32:54;98650.56;;;11.16;67.29
80308;BME280;69616;43.522;1.348;2024-03-08T01:35:20;98629.59;;;11.13;67.69
80308;BME280;69616;43.522;1.348;2024-03-08T01:37:47;98636.72;;;11.09;67.65
80308;BME280;69616;43.522;1.348;2024-03-08T01:40:15;98624.47;;;11.08;67.56
80308;BME280;69616;43.522;1.348;2024-03-08T01:42:42;98619.97;;;11.12;67.63
80308;BME280;69616;43.522;1.348;2024-03-08T01:45:07;98623.34;;;11.15;67.24
80308;BME280;69616;43.522;1.348;2024-03-08T01:47:34;98616.34;;;11.14;67.24
80308;BME280;69616;43.522;1.348;2024-03-08T01:50:00;98620.97;;;11.08;67.76
80308;BME280;69616;43.522;1.348;2024-03-08T01:52:28;98611.25;;;11.10;67.62
80308;BME280;69616;43.522;1.348;2024-03-08T01:54:54;98605.94;;;11.11;67.75
80308;BME280;69616;43.522;1.348;2024-03-08T01:57:20;98600.66;;;11.11;67.69
80308;BME280;69616;43.522;1.348;2024-03-08T01:59:46;98582.22;;;11.11;67.70
80308;BME280;69616;43.522;1.348;2024-03-08T02:02:13;98584.97;;;11.08;68.10
80308;BME280;69616;43.522;1.348;2024-03-08T02:04:40;98570.88;;;11.09;68.11
80308;BME280;69616;43.522;1.348;2024-03-08T02:07:05;98549.00;;;11.07;68.41
80308;BME280;69616;43.522;1.348;2024-03-08T02:09:31;98545.69;;;11.00;68.56
80308;BME280;69616;43.522;1.348;2024-03-08T02:11:57;98539.47;;;11.03;68.16
80308;BME280;69616;43.522;1.348;2024-03-08T02:14:22;98528.94;;;11.03;68.40
80308;BME280;69616;43.522;1.348;2024-03-08T02:16:48;98529.97;;;10.99;68.28
80308;BME280;69616;43.522;1.348;2024-03-08T02:19:14;98524.53;;;11.03;68.07
80308;BME280;69616;43.522;1.348;2024-03-08T02:21:43;98521.22;;;10.97;68.34
80308;BME280;69616;43.522;1.348;2024-03-08T02:24:09;98510.63;;;11.00;68.38
80308;BME280;69616;43.522;1.348;2024-03-08T02:26:34;98520.25;;;11.01;68.17
80308;BME280;69616;43.522;1.348;2024-03-08T02:28:59;98521.97;;;11.02;68.21
80308;BME280;69616;43.522;1.348;2024-03-08T02:31:25;98518.81;;;10.90;68.47
80308;BME280;69616;43.522;1.348;2024-03-08T02:33:50;98509.88;;;10.95;68.27
80308;BME280;69616;43.522;1.348;2024-03-08T02:36:15;98485.22;;;10.97;67.94
80308;BME280;69616;43.522;1.348;2024-03-08T02:38:41;98506.34;;;10.96;67.93
80308;BME280;69616;43.522;1.348;2024-03-08T02:41:06;98505.72;;;10.89;68.08
80308;BME280;69616;43.522;1.348;2024-03-08T02:43:33;98496.91;;;10.90;68.26
80308;BME280;69616;43.522;1.348;2024-03-08T02:46:00;98486.25;;;10.93;67.67
80308;BME280;69616;43.522;1.348;2024-03-08T02:48:25;98503.91;;;10.89;68.01
80308;BME280;69616;43.522;1.348;2024-03-08T02:50:51;98476.69;;;10.90;67.77
80308;BME280;69616;43.522;1.348;2024-03-08T02:53:16;98470.66;;;10.87;67.51
80308;BME280;69616;43.522;1.348;2024-03-08T02:55:44;98488.13;;;10.89;67.58
80308;BME280;69616;43.522;1.348;2024-03-08T02:58:09;98476.91;;;10.84;67.62
80308;BME280;69616;43.522;1.348;2024-03-08T03:00:36;98479.41;;;10.87;67.76
80308;BME280;69616;43.522;1.348;2024-03-08T03:03:01;98475.81;;;10.90;67.48
80308;BME280;69616;43.522;1.348;2024-03-08T03:05:29;98469.66;;;10.91;67.31
80308;BME280;69616;43.522;1.348;2024-03-08T03:07:57;98479.53;;;10.84;66.73
80308;BME280;69616;43.522;1.348;2024-03-08T03:10:23;98469.78;;;10.86;67.23
80308;BME280;69616;43.522;1.348;2024-03-08T03:12:49;98467.19;;;10.85;67.11
80308;BME280;69616;43.522;1.348;2024-03-08T03:15:15;98457.50;;;10.87;67.25
80308;BME280;69616;43.522;1.348;2024-03-08T03:17:46;98476.91;;;10.84;66.98
80308;BME280;69616;43.522;1.348;2024-03-08T03:20:11;98466.34;;;10.84;66.89
80308;BME280;69616;43.522;1.348;2024-03-08T03:22:47;98473.38;;;10.84;66.91
80308;BME280;69616;43.522;1.348;2024-03-08T03:25:17;98472.53;;;10.83;66.90
80308;BME280;69616;43.522;1.348;2024-03-08T03:27:49;98471.50;;;10.87;67.13
80308;BME280;69616;43.522;1.348;2024-03-08T03:30:14;98476.78;;;10.87;66.87
80308;BME280;69616;43.522;1.348;2024-03-08T03:32:49;98452.31;;;10.84;67.04
80308;BME280;69616;43.522;1.348;2024-03-08T03:35:19;98456.59;;;10.88;66.84
80308;BME280;69616;43.522;1.348;2024-03-08T03:37:46;98434.00;;;10.81;66.81
80308;BME280;69616;43.522;1.348;2024-03-08T03:40:27;98424.22;;;10.84;66.89
80308;BME280;69616;43.522;1.348;2024-03-08T03:42:52;98423.28;;;10.87;66.78
80308;BME280;69616;43.522;1.348;2024-03-08T03:45:18;98418.97;;;10.84;67.03
80308;BME280;69616;43.522;1.348;2024-03-08T03:47:45;98407.66;;;10.81;66.59
80308;BME280;69616;43.522;1.348;2024-03-08T03:50:11;98406.81;;;10.80;66.58
80308;BME280;69616;43.522;1.348;2024-03-08T03:52:36;98413.91;;;10.78;66.42
80308;BME280;69616;43.522;1.348;2024-03-08T03:55:01;98408.44;;;10.84;66.63
80308;BME280;69616;43.522;1.348;2024-03-08T03:57:29;98418.28;;;10.79;66.39
80308;BME280;69616;43.522;1.348;2024-03-08T03:59:55;98434.00;;;10.81;66.01
80308;BME280;69616;43.522;1.348;2024-03-08T04:02:20;98449.78;;;10.81;65.83
80308;BME280;69616;43.522;1.348;2024-03-08T04:04:47;98442.78;;;10.81;66.22
80308;BME280;69616;43.522;1.348;2024-03-08T04:07:13;98458.56;;;10.81;65.86
80308;BME280;69616;43.522;1.348;2024-03-08T04:09:38;98463.88;;;10.80;66.35
80308;BME280;69616;43.522;1.348;2024-03-08T04:12:04;98463.84;;;10.81;65.75
80308;BME280;69616;43.522;1.348;2024-03-08T04:14:30;98448.94;;;10.80;65.91
80308;BME280;69616;43.522;1.348;2024-03-08T04:16:55;98448.94;;;10.80;66.29
80308;BME280;69616;43.522;1.348;2024-03-08T04:19:20;98453.44;;;10.76;65.92
80308;BME280;69616;43.522;1.348;2024-03-08T04:21:46;98443.69;;;10.80;65.79
80308;BME280;69616;43.522;1.348;2024-03-08T04:24:12;98451.69;;;10.77;66.38
80308;BME280;69616;43.522;1.348;2024-03-08T04:26:37;98457.75;;;10.79;65.92
80308;BME280;69616;43.522;1.348;2024-03-08T04:29:03;98434.97;;;10.78;65.86
80308;BME280;69616;43.522;1.348;2024-03-08T04:31:28;98448.06;;;10.80;66.27
80308;BME280;69616;43.522;1.348;2024-03-08T04:33:56;98449.66;;;10.85;66.12
80308;BME280;69616;43.522;1.348;2024-03-08T04:36:22;98440.03;;;10.84;66.34
80308;BME280;69616;43.522;1.348;2024-03-08T04:38:47;98443.47;;;10.86;66.37
80308;BME280;69616;43.522;1.348;2024-03-08T04:41:12;98445.28;;;10.84;66.03
80308;BME280;69616;43.522;1.348;2024-03-08T04:43:39;98443.56;;;10.83;66.62
80308;BME280;69616;43.522;1.348;2024-03-08T04:46:05;98421.63;;;10.83;66.33
80308;BME280;69616;43.522;1.348;2024-03-08T04:48:30;98432.25;;;10.81;66.80
80308;BME280;69616;43.522;1.348;2024-03-08T04:50:56;98422.41;;;10.86;66.30
80308;BME280;69616;43.522;1.348;2024-03-08T04:53:21;98416.28;;;10.86;66.47
80308;BME280;69616;43.522;1.348;2024-03-08T04:55:48;98413.69;;;10.84;66.81
80308;BME280;69616;43.522;1.348;2024-03-08T04:58:13;98418.84;;;10.87;67.13
80308;BME280;69616;43.522;1.348;2024-03-08T05:00:38;98411.03;;;10.86;67.11
80308;BME280;69616;43.522;1.348;2024-03-08T05:03:04;98407.41;;;10.88;67.30
80308;BME280;69616;43.522;1.348;2024-03-08T05:05:30;98409.22;;;10.86;67.32
80308;BME280;69616;43.522;1.348;2024-03-08T05:07:56;98391.59;;;10.88;67.28
80308;BME280;69616;43.522;1.348;2024-03-08T05:10:21;98397.91;;;10.84;67.41
80308;BME280;69616;43.522;1.348;2024-03-08T05:12:47;98380.28;;;10.86;67.45
80308;BME280;69616;43.522;1.348;2024-03-08T05:15:12;98364.47;;;10.86;67.22
80308;BME280;69616;43.522;1.348;2024-03-08T05:17:38;98348.66;;;10.86;67.83
80308;BME280;69616;43.522;1.348;2024-03-08T05:20:05;98360.13;;;10.85;67.43
80308;BME280;69616;43.522;1.348;2024-03-08T05:22:33;98350.50;;;10.84;67.55
80308;BME280;69616;43.522;1.348;2024-03-08T05:24:58;98360.13;;;10.85;68.14
80308;BME280;69616;43.522;1.348;2024-03-08T05:27:24;98350.50;;;10.84;68.09
80308;BME280;69616;43.522;1.348;2024-03-08T05:29:49;98353.94;;;10.86;67.73
80308;BME280;69616;43.522;1.348;2024-03-08T05:32:15;98350.38;;;10.87;67.93
80308;BME280;69616;43.522;1.348;2024-03-08T05:34:40;98354.75;;;10.88;68.12
80308;BME280;69616;43.522;1.348;2024-03-08T05:37:05;98355.53;;;10.90;67.77
80308;BME280;69616;43.522;1.348;2024-03-08T05:39:32;98365.16;;;10.91;67.88
80308;BME280;69616;43.522;1.348;2024-03-08T05:41:57;98351.16;;;10.91;68.15
80308;BME280;69616;43.522;1.348;2024-03-08T05:44:23;98357.25;;;10.91;68.03
80308;BME280;69616;43.522;1.348;2024-03-08T05:46:48;98369.38;;;10.96;67.75
80308;BME280;69616;43.522;1.348;2024-03-08T05:49:14;98353.72;;;10.93;67.75
80308;BME280;69616;43.522;1.348;2024-03-08T05:51:40;98369.38;;;10.96;68.12
80308;BME280;69616;43.522;1.348;2024-03-08T05:54:10;98375.56;;;10.95;68.25
80308;BME280;69616;43.522;1.348;2024-03-08T05:56:36;98396.56;;;10.98;68.29
80308;BME280;69616;43.522;1.348;2024-03-08T05:59:02;98382.94;;;11.10;67.75
80308;BME280;69616;43.522;1.348;2024-03-08T06:01:28;98384.66;;;11.11;67.99
80308;BME280;69616;43.522;1.348;2024-03-08T06:03:55;98387.50;;;11.05;68.64
80308;BME280;69616;43.522;1.348;2024-03-08T06:06:24;98395.41;;;11.05;68.87
80308;BME280;69616;43.522;1.348;2024-03-08T06:08:50;98398.16;;;11.02;69.49
80308;BME280;69616;43.522;1.348;2024-03-08T06:11:17;98407.66;;;11.06;68.88
80308;BME280;69616;43.522;1.348;2024-03-08T06:13:43;98410.31;;;11.06;69.50
80308;BME280;69616;43.522;1.348;2024-03-08T06:16:09;98408.59;;;11.05;69.59
80308;BME280;69616;43.522;1.348;2024-03-08T06:18:34;98412.94;;;11.06;70.33
80308;BME280;69616;43.522;1.348;2024-03-08T06:21:06;98414.66;;;11.07;70.05
80308;BME280;69616;43.522;1.348;2024-03-08T06:23:32;98429.59;;;11.06;70.68
80308;BME280;69616;43.522;1.348;2024-03-08T06:25:58;98430.34;;;11.10;70.70
80308;BME280;69616;43.522;1.348;2024-03-08T06:28:24;98424.22;;;11.10;71.24
80308;BME280;69616;43.522;1.348;2024-03-08T06:30:49;98441.78;;;11.09;71.44
80308;BME280;69616;43.522;1.348;2024-03-08T06:33:16;98428.63;;;11.09;71.21
80308;BME280;69616;43.522;1.348;2024-03-08T06:35:42;98429.50;;;11.10;71.92
80308;BME280;69616;43.522;1.348;2024-03-08T06:38:10;98446.25;;;11.07;71.82
80308;BME280;69616;43.522;1.348;2024-03-08T06:40:42;98440.88;;;11.10;72.04
80308;BME280;69616;43.522;1.348;2024-03-08T06:43:07;98451.47;;;11.09;71.64
80308;BME280;69616;43.522;1.348;2024-03-08T06:45:33;98437.44;;;11.08;72.71
80308;BME280;69616;43.522;1.348;2024-03-08T06:47:58;98447.97;;;11.08;72.68
80308;BME280;69616;43.522;1.348;2024-03-08T06:50:26;98440.19;;;11.05;72.80
80308;BME280;69616;43.522;1.348;2024-03-08T06:52:52;98451.41;;;11.10;72.70
80308;BME280;69616;43.522;1.348;2024-03-08T06:55:19;98435.66;;;11.09;72.74
80308;BME280;69616;43.522;1.348;2024-03-08T06:57:45;98442.81;;;11.05;73.32
80308;BME280;69616;43.522;1.348;2024-03-08T07:00:11;98436.50;;;11.11;73.38
80308;BME280;69616;43.522;1.348;2024-03-08T07:02:40;98456.69;;;11.10;73.71
80308;BME280;69616;43.522;1.348;2024-03-08T07:05:07;98451.25;;;11.15;73.69
80308;BME280;69616;43.522;1.348;2024-03-08T07:07:35;98437.34;;;11.11;74.10
80308;BME280;69616;43.522;1.348;2024-03-08T07:10:01;98453.25;;;11.08;74.26
80308;BME280;69616;43.522;1.348;2024-03-08T07:12:26;98453.13;;;11.11;75.16
80308;BME280;69616;43.522;1.348;2024-03-08T07:14:52;98446.25;;;11.07;75.38
80308;BME280;69616;43.522;1.348;2024-03-08T07:17:17;98444.53;;;11.06;75.79
80308;BME280;69616;43.522;1.348;2024-03-08T07:19:42;98466.78;;;10.97;76.61
80308;BME280;69616;43.522;1.348;2024-03-08T07:22:08;98466.78;;;10.97;76.84
80308;BME280;69616;43.522;1.348;2024-03-08T07:24:35;98481.03;;;10.91;77.69
80308;BME280;69616;43.522;1.348;2024-03-08T07:27:35;98470.84;;;10.81;79.30
80308;BME280;69616;43.522;1.348;2024-03-08T07:30:04;98469.91;;;10.83;78.17
80308;BME280;69616;43.522;1.348;2024-03-08T07:32:30;98466.75;;;10.72;79.07
80308;BME280;69616;43.522;1.348;2024-03-08T07:34:57;98464.78;;;10.79;77.94
80308;BME280;69616;43.522;1.348;2024-03-08T07:37:22;98455.97;;;10.80;77.74
80308;BME280;69616;43.522;1.348;2024-03-08T07:39:48;98455.16;;;10.77;78.91
80308;BME280;69616;43.522;1.348;2024-03-08T07:42:14;98467.50;;;10.77;78.53
80308;BME280;69616;43.522;1.348;2024-03-08T07:44:39;98461.47;;;10.73;79.57
80308;BME280;69616;43.522;1.348;2024-03-08T07:47:05;98460.59;;;10.73;78.97
80308;BME280;69616;43.522;1.348;2024-03-08T07:49:34;98453.66;;;10.70;79.69
80308;BME280;69616;43.522;1.348;2024-03-08T07:51:59;98453.13;;;10.60;80.30
80308;BME280;69616;43.522;1.348;2024-03-08T07:54:25;98431.09;;;10.63;80.89
80308;BME280;69616;43.522;1.348;2024-03-08T07:56:51;98442.34;;;10.68;79.53
80308;BME280;69616;43.522;1.348;2024-03-08T07:59:17;98435.25;;;10.70;79.48
80308;BME280;69616;43.522;1.348;2024-03-08T08:01:43;98429.09;;;10.70;80.30
80308;BME280;69616;43.522;1.348;2024-03-08T08:04:09;98424.63;;;10.72;79.79
80308;BME280;69616;43.522;1.348;2024-03-08T08:06:38;98422.00;;;10.72;79.79
80308;BME280;69616;43.522;1.348;2024-03-08T08:09:06;98415.03;;;10.71;79.80
80308;BME280;69616;43.522;1.348;2024-03-08T08:11:35;98415.09;;;10.69;79.96
80308;BME280;69616;43.522;1.348;2024-03-08T08:14:00;98415.13;;;10.68;80.82
80308;BME280;69616;43.522;1.348;2024-03-08T08:16:26;98409.88;;;10.68;80.57
80308;BME280;69616;43.522;1.348;2024-03-08T08:18:51;98408.25;;;10.63;81.47
80308;BME280;69616;43.522;1.348;2024-03-08T08:21:17;98405.72;;;10.60;81.62
80308;BME280;69616;43.522;1.348;2024-03-08T08:23:43;98416.25;;;10.60;81.55
80308;BME280;69616;43.522;1.348;2024-03-08T08:26:10;98404.03;;;10.59;81.42
80308;BME280;69616;43.522;1.348;2024-03-08T08:28:36;98397.03;;;10.58;81.84
80308;BME280;69616;43.522;1.348;2024-03-08T08:31:02;98397.84;;;10.60;81.84
80308;BME280;69616;43.522;1.348;2024-03-08T08:33:29;98396.94;;;10.61;81.95
80308;BME280;69616;43.522;1.348;2024-03-08T08:35:54;98396.13;;;10.59;81.77
80308;BME280;69616;43.522;1.348;2024-03-08T08:38:21;98378.53;;;10.60;81.69
80308;BME280;69616;43.522;1.348;2024-03-08T08:40:47;98382.09;;;10.59;82.01
80308;BME280;69616;43.522;1.348;2024-03-08T08:43:13;98382.97;;;10.59;82.18
80308;BME280;69616;43.522;1.348;2024-03-08T08:45:39;98391.78;;;10.58;82.46
80308;BME280;69616;43.522;1.348;2024-03-08T08:48:05;98397.16;;;10.55;83.23
80308;BME280;69616;43.522;1.348;2024-03-08T08:50:31;98400.84;;;10.50;83.52
80308;BME280;69616;43.522;1.348;2024-03-08T08:52:56;98421.94;;;10.48;83.46
80308;BME280;69616;43.522;1.348;2024-03-08T08:55:22;98426.44;;;10.44;83.32
80308;BME280;69616;43.522;1.348;2024-03-08T08:57:51;98425.56;;;10.44;82.58
80308;BME280;69616;43.522;1.348;2024-03-08T09:00:18;98421.19;;;10.44;82.94
80308;BME280;69616;43.522;1.348;2024-03-08T09:02:45;98408.06;;;10.43;82.39
80308;BME280;69616;43.522;1.348;2024-03-08T09:05:10;98393.28;;;10.39;82.18
80308;BME280;69616;43.522;1.348;2024-03-08T09:07:45;98390.84;;;10.32;82.22
80308;BME280;69616;43.522;1.348;2024-03-08T09:10:10;98388.47;;;10.25;82.50
80308;BME280;69616;43.522;1.348;2024-03-08T09:12:38;98390.34;;;10.21;81.45
80308;BME280;69616;43.522;1.348;2024-03-08T09:15:05;98393.28;;;10.12;81.36
80308;BME280;69616;43.522;1.348;2024-03-08T09:17:30;98400.34;;;10.10;81.27
80308;BME280;69616;43.522;1.348;2024-03-08T09:19:55;98409.25;;;10.05;81.21
80308;BME280;69616;43.522;1.348;2024-03-08T09:22:22;98410.34;;;9.98;80.68
80308;BME280;69616;43.522;1.348;2024-03-08T09:24:48;98421.78;;;9.97;80.90
80308;BME280;69616;43.522;1.348;2024-03-08T09:27:13;98428.94;;;9.92;80.48
80308;BME280;69616;43.522;1.348;2024-03-08T09:29:39;98432.69;;;9.85;80.02
80308;BME280;69616;43.522;1.348;2024-03-08T09:32:04;98436.22;;;9.84;80.07
80308;BME280;69616;43.522;1.348;2024-03-08T09:34:30;98430.19;;;9.80;80.40
80308;BME280;69616;43.522;1.348;2024-03-08T09:36:55;98438.16;;;9.77;80.27
80308;BME280;69616;43.522;1.348;2024-03-08T09:39:20;98428.69;;;9.71;80.38
80308;BME280;69616;43.522;1.348;2024-03-08T09:41:47;98440.13;;;9.70;79.94
80308;BME280;69616;43.522;1.348;2024-03-08T09:44:15;98447.28;;;9.65;80.31
80308;BME280;69616;43.522;1.348;2024-03-08T09:46:42;98449.19;;;9.60;80.40
80308;BME280;69616;43.522;1.348;2024-03-08T09:49:07;98447.56;;;9.56;80.53
80308;BME280;69616;43.522;1.348;2024-03-08T09:51:34;98434.53;;;9.53;80.68
80308;BME280;69616;43.522;1.348;2024-03-08T09:54:05;98436.38;;;9.49;80.93
80308;BME280;69616;43.522;1.348;2024-03-08T09:56:34;98430.34;;;9.45;80.96
80308;BME280;69616;43.522;1.348;2024-03-08T09:59:00;98428.59;;;9.46;80.83
80308;BME280;69616;43.522;1.348;2024-03-08T10:01:35;98429.59;;;9.42;81.06
80308;BME280;69616;43.522;1.348;2024-03-08T10:04:02;98418.09;;;9.44;80.83
80308;BME280;69616;43.522;1.348;2024-03-08T10:06:27;98409.22;;;9.48;80.41
80308;BME280;69616;43.522;1.348;2024-03-08T10:08:52;98375.81;;;9.54;80.02
80308;BME280;69616;43.522;1.348;2024-03-08T10:11:18;98305.47;;;9.62;79.86
80308;BME280;69616;43.522;1.348;2024-03-08T10:13:44;98263.09;;;9.71;79.28
80308;BME280;69616;43.522;1.348;2024-03-08T10:16:12;98259.47;;;9.75;79.05
80308;BME280;69616;43.522;1.348;2024-03-08T10:18:37;98259.31;;;9.80;78.74
80308;BME280;69616;43.522;1.348;2024-03-08T10:21:04;98239.97;;;9.83;78.81
80308;BME280;69616;43.522;1.348;2024-03-08T10:23:31;98218.88;;;9.84;78.03
80308;BME280;69616;43.522;1.348;2024-03-08T10:25:56;98206.72;;;9.82;77.99
80308;BME280;69616;43.522;1.348;2024-03-08T10:28:23;98183.16;;;9.79;77.75
80308;BME280;69616;43.522;1.348;2024-03-08T10:30:50;98187.50;;;9.80;78.03
80308;BME280;69616;43.522;1.348;2024-03-08T10:33:15;98206.72;;;9.82;77.87
80308;BME280;69616;43.522;1.348;2024-03-08T10:35:40;98207.50;;;9.84;78.14
80308;BME280;69616;43.522;1.348;2024-03-08T10:38:10;98215.28;;;9.87;77.81
80308;BME280;69616;43.522;1.348;2024-03-08T10:40:38;98239.59;;;9.94;77.93
80308;BME280;69616;43.522;1.348;2024-03-08T10:43:11;98260.38;;;10.01;77.54
80308;BME280;69616;43.522;1.348;2024-03-08T10:45:40;98280.22;;;10.10;77.28
80308;BME280;69616;43.522;1.348;2024-03-08T10:50:53;98293.63;;;10.29;77.38
80308;BME280;69616;43.522;1.348;2024-03-08T10:53:19;98311.72;;;10.39;78.18
80308;BME280;69616;43.522;1.348;2024-03-08T10:55:49;98322.22;;;10.39;77.90
80308;BME280;69616;43.522;1.348;2024-03-08T10:58:15;98349.22;;;10.45;78.18
80308;BME280;69616;43.522;1.348;2024-03-08T11:00:41;98369.84;;;10.58;78.32
80308;BME280;69616;43.522;1.348;2024-03-08T11:03:07;98385.09;;;10.73;78.08
80308;BME280;69616;43.522;1.348;2024-03-08T11:05:40;98379.72;;;11.02;77.30
80308;BME280;69616;43.522;1.348;2024-03-08T11:10:49;98351.97;;;11.63;74.69
80308;BME280;69616;43.522;1.348;2024-03-08T11:13:38;98356.59;;;12.02;74.13
80308;BME280;69616;43.522;1.348;2024-03-08T11:19:01;98365.09;;;12.73;73.26
80308;BME280;69616;43.522;1.348;2024-03-08T11:21:31;98371.06;;;12.97;71.73
80308;BME280;69616;43.522;1.348;2024-03-08T11:26:25;98364.13;;;13.34;70.83
80308;BME280;69616;43.522;1.348;2024-03-08T11:28:51;98352.44;;;13.59;71.39
80308;BME280;69616;43.522;1.348;2024-03-08T11:33:46;98363.59;;;14.03;69.28
80308;BME280;69616;43.522;1.348;2024-03-08T11:36:20;98358.47;;;14.17;69.46
80308;BME280;69616;43.522;1.348;2024-03-08T11:38:48;98353.84;;;14.03;68.23
80308;BME280;69616;43.522;1.348;2024-03-08T11:41:17;98360.34;;;14.15;66.97
80308;BME280;69616;43.522;1.348;2024-03-08T11:43:43;98363.53;;;14.22;67.29
80308;BME280;69616;43.522;1.348;2024-03-08T11:46:10;98360.25;;;14.34;67.34
80308;BME280;69616;43.522;1.348;2024-03-08T11:48:38;98363.78;;;14.53;66.71
80308;BME280;69616;43.522;1.348;2024-03-08T11:51:04;98361.94;;;14.72;67.08
80308;BME280;69616;43.522;1.348;2024-03-08T11:53:30;98367.91;;;14.93;67.24
80308;BME280;69616;43.522;1.348;2024-03-08T11:56:13;98366.16;;;15.10;66.23
80308;BME280;69616;43.522;1.348;2024-03-08T11:58:40;98357.97;;;15.31;66.36
80308;BME280;69616;43.522;1.348;2024-03-08T12:01:10;98352.44;;;15.52;65.57
80308;BME280;69616;43.522;1.348;2024-03-08T12:03:39;98356.31;;;15.62;65.63
80308;BME280;69616;43.522;1.348;2024-03-08T12:06:07;98352.53;;;15.66;64.74
80308;BME280;69616;43.522;1.348;2024-03-08T12:08:35;98347.81;;;15.71;64.07
80308;BME280;69616;43.522;1.348;2024-03-08T12:11:00;98345.75;;;15.76;63.96
80308;BME280;69616;43.522;1.348;2024-03-08T12:13:30;98338.78;;;15.91;63.84
80308;BME280;69616;43.522;1.348;2024-03-08T12:15:58;98335.81;;;16.12;63.22
80308;BME280;69616;43.522;1.348;2024-03-08T12:18:27;98334.91;;;16.28;62.56
80308;BME280;69616;43.522;1.348;2024-03-08T12:21:08;98325.38;;;16.40;62.70
80308;BME280;69616;43.522;1.348;2024-03-08T12:23:37;98330.72;;;16.54;61.83
80308;BME280;69616;43.522;1.348;2024-03-08T12:26:18;98322.94;;;16.65;61.33
80308;BME280;69616;43.522;1.348;2024-03-08T12:28:51;98318.22;;;16.85;61.61
80308;BME280;69616;43.522;1.348;2024-03-08T12:31:16;98320.63;;;17.04;61.16
80308;BME280;69616;43.522;1.348;2024-03-08T12:33:53;98318.63;;;17.08;60.41
80308;BME280;69616;43.522;1.348;2024-03-08T12:36:20;98310.63;;;17.22;59.35
80308;BME280;69616;43.522;1.348;2024-03-08T12:38:49;98304.94;;;17.29;59.63
80308;BME280;69616;43.522;1.348;2024-03-08T12:41:18;98308.84;;;17.38;59.81
80308;BME280;69616;43.522;1.348;2024-03-08T12:43:45;98303.31;;;17.41;57.93
80308;BME280;69616;43.522;1.348;2024-03-08T12:46:19;98307.22;;;17.35;57.69
80308;BME280;69616;43.522;1.348;2024-03-08T12:48:51;98297.91;;;17.28;57.11
80308;BME280;69616;43.522;1.348;2024-03-08T12:51:20;98300.19;;;17.19;56.58
80308;BME280;69616;43.522;1.348;2024-03-08T12:53:46;98294.66;;;17.22;56.78
80308;BME280;69616;43.522;1.348;2024-03-08T12:56:13;98294.75;;;17.35;57.50
80308;BME280;69616;43.522;1.348;2024-03-08T12:58:39;98291.03;;;17.53;57.15
80308;BME280;69616;43.522;1.348;2024-03-08T13:01:06;98289.72;;;17.73;56.73
80308;BME280;69616;43.522;1.348;2024-03-08T13:03:34;98298.78;;;17.83;55.89
80308;BME280;69616;43.522;1.348;2024-03-08T13:06:04;98296.47;;;17.78;55.55
80308;BME280;69616;43.522;1.348;2024-03-08T13:08:34;98298.75;;;17.70;54.49
80308;BME280;69616;43.522;1.348;2024-03-08T13:11:01;98293.00;;;17.63;53.78
80308;BME280;69616;43.522;1.348;2024-03-08T13:13:26;98291.78;;;17.55;53.41